sensor_id;sensor_type;location;lat;lon;timestamp;P1;durP1;ratioP1;P2;durP2;ratioP2
72273;SDS011;60208;48.692;8.948;2023-04-06T00:00:10;16.70;;;9.48;;
72273;SDS011;60208;48.692;8.948;2023-04-06T00:02:36;14.48;;;10.38;;
72273;SDS011;60208;48.692;8.948;2023-04-06T00:05:01;11.65;;;8.98;;
72273;SDS011;60208;48.692;8.948;2023-04-06T00:07:27;12.27;;;8.75;;
72273;SDS011;60208;48.692;8.948;2023-04-06T00:09:53;14.25;;;9.48;;
72273;SDS011;60208;48.692;8.948;2023-04-06T00:12:18;14.43;;;9.50;;
72273;SDS011;60208;48.692;8.948;2023-04-06T00:14:43;11.40;;;9.00;;
72273;SDS011;60208;48.692;8.948;2023-04-06T00:17:09;10.80;;;8.38;;
72273;SDS011;60208;48.692;8.948;2023-04-06T00:19:34;12.05;;;8.93;;
72273;SDS011;60208;48.692;8.948;2023-04-06T00:21:59;38.30;;;23.25;;
72273;SDS011;60208;48.692;8.948;2023-04-06T00:24:25;11.48;;;9.13;;
72273;SDS011;60208;48.692;8.948;2023-04-06T00:26:50;11.15;;;8.93;;
72273;SDS011;60208;48.692;8.948;2023-04-06T00:29:15;14.82;;;9.32;;
72273;SDS011;60208;48.692;8.948;2023-04-06T00:31:41;15.55;;;9.35;;
72273;SDS011;60208;48.692;8.948;2023-04-06T00:34:06;16.20;;;10.30;;
72273;SDS011;60208;48.692;8.948;2023-04-06T00:36:31;12.95;;;9.52;;
72273;SDS011;60208;48.692;8.948;2023-04-06T00:38:57;12.38;;;9.48;;
72273;SDS011;60208;48.692;8.948;2023-04-06T00:41:22;12.77;;;9.07;;
72273;SDS011;60208;48.692;8.948;2023-04-06T00:43:47;13.63;;;9.20;;
72273;SDS011;60208;48.692;8.948;2023-04-06T00:46:12;13.25;;;8.82;;
72273;SDS011;60208;48.692;8.948;2023-04-06T00:48:38;18.58;;;9.50;;
72273;SDS011;60208;48.692;8.948;2023-04-06T00:51:04;12.15;;;9.25;;
72273;SDS011;60208;48.692;8.948;2023-04-06T00:53:29;13.13;;;8.95;;
72273;SDS011;60208;48.692;8.948;2023-04-06T00:55:54;13.07;;;8.88;;
72273;SDS011;60208;48.692;8.948;2023-04-06T00:58:20;13.82;;;9.32;;
72273;SDS011;60208;48.692;8.948;2023-04-06T01:00:45;13.13;;;9.32;;
72273;SDS011;60208;48.692;8.948;2023-04-06T01:03:10;13.00;;;9.57;;
72273;SDS011;60208;48.692;8.948;2023-04-06T01:05:35;14.10;;;9.30;;
72273;SDS011;60208;48.692;8.948;2023-04-06T01:08:05;14.68;;;9.98;;
72273;SDS011;60208;48.692;8.948;2023-04-06T01:10:30;14.55;;;8.82;;
72273;SDS011;60208;48.692;8.948;2023-04-06T01:12:56;13.75;;;8.18;;
72273;SDS011;60208;48.692;8.948;2023-04-06T01:15:21;13.00;;;9.20;;
72273;SDS011;60208;48.692;8.948;2023-04-06T01:17:46;12.93;;;9.38;;
72273;SDS011;60208;48.692;8.948;2023-04-06T01:20:12;14.52;;;9.02;;
72273;SDS011;60208;48.692;8.948;2023-04-06T01:22:37;12.07;;;9.07;;
72273;SDS011;60208;48.692;8.948;2023-04-06T01:25:03;13.13;;;8.90;;
72273;SDS011;60208;48.692;8.948;2023-04-06T01:27:28;13.15;;;9.75;;
72273;SDS011;60208;48.692;8.948;2023-04-06T01:29:54;15.13;;;10.00;;
72273;SDS011;60208;48.692;8.948;2023-04-06T01:32:20;11.40;;;8.65;;
72273;SDS011;60208;48.692;8.948;2023-04-06T01:34:45;13.20;;;9.25;;
72273;SDS011;60208;48.692;8.948;2023-04-06T01:37:11;12.85;;;9.48;;
72273;SDS011;60208;48.692;8.948;2023-04-06T01:39:36;13.82;;;9.10;;
72273;SDS011;60208;48.692;8.948;2023-04-06T01:42:01;14.75;;;9.15;;
72273;SDS011;60208;48.692;8.948;2023-04-06T01:44:26;13.18;;;9.70;;
72273;SDS011;60208;48.692;8.948;2023-04-06T01:46:52;12.98;;;9.07;;
72273;SDS011;60208;48.692;8.948;2023-04-06T01:49:17;14.30;;;9.07;;
72273;SDS011;60208;48.692;8.948;2023-04-06T01:51:42;12.90;;;9.18;;
72273;SDS011;60208;48.692;8.948;2023-04-06T01:54:07;11.52;;;9.02;;
72273;SDS011;60208;48.692;8.948;2023-04-06T01:56:33;12.80;;;9.15;;
72273;SDS011;60208;48.692;8.948;2023-04-06T01:58:58;14.70;;;9.43;;
72273;SDS011;60208;48.692;8.948;2023-04-06T02:01:23;15.63;;;9.23;;
72273;SDS011;60208;48.692;8.948;2023-04-06T02:03:48;12.27;;;8.88;;
72273;SDS011;60208;48.692;8.948;2023-04-06T02:06:14;15.43;;;9.02;;
72273;SDS011;60208;48.692;8.948;2023-04-06T02:08:40;11.48;;;8.23;;
72273;SDS011;60208;48.692;8.948;2023-04-06T02:11:05;15.43;;;8.85;;
72273;SDS011;60208;48.692;8.948;2023-04-06T02:13:30;12.93;;;9.38;;
72273;SDS011;60208;48.692;8.948;2023-04-06T02:15:55;14.13;;;9.85;;
72273;SDS011;60208;48.692;8.948;2023-04-06T02:18:22;13.50;;;9.68;;
72273;SDS011;60208;48.692;8.948;2023-04-06T02:20:47;14.57;;;9.65;;
72273;SDS011;60208;48.692;8.948;2023-04-06T02:23:12;15.07;;;10.00;;
72273;SDS011;60208;48.692;8.948;2023-04-06T02:25:38;12.35;;;9.63;;
72273;SDS011;60208;48.692;8.948;2023-04-06T02:28:03;13.73;;;9.65;;
72273;SDS011;60208;48.692;8.948;2023-04-06T02:30:28;13.60;;;9.88;;
72273;SDS011;60208;48.692;8.948;2023-04-06T02:32:54;13.27;;;8.98;;
72273;SDS011;60208;48.692;8.948;2023-04-06T02:35:19;13.43;;;9.75;;
72273;SDS011;60208;48.692;8.948;2023-04-06T02:37:45;15.18;;;9.88;;
72273;SDS011;60208;48.692;8.948;2023-04-06T02:40:10;13.98;;;8.90;;
72273;SDS011;60208;48.692;8.948;2023-04-06T02:42:35;14.02;;;9.73;;
72273;SDS011;60208;48.692;8.948;2023-04-06T02:45:01;13.27;;;9.40;;
72273;SDS011;60208;48.692;8.948;2023-04-06T02:47:26;14.55;;;9.77;;
72273;SDS011;60208;48.692;8.948;2023-04-06T02:49:51;14.88;;;9.20;;
72273;SDS011;60208;48.692;8.948;2023-04-06T02:52:17;13.20;;;9.00;;
72273;SDS011;60208;48.692;8.948;2023-04-06T02:54:43;12.95;;;9.50;;
72273;SDS011;60208;48.692;8.948;2023-04-06T02:57:08;13.68;;;8.95;;
72273;SDS011;60208;48.692;8.948;2023-04-06T02:59:33;15.65;;;8.90;;
72273;SDS011;60208;48.692;8.948;2023-04-06T03:01:58;13.77;;;9.20;;
72273;SDS011;60208;48.692;8.948;2023-04-06T03:04:24;12.50;;;8.82;;
72273;SDS011;60208;48.692;8.948;2023-04-06T03:06:50;13.65;;;9.88;;
72273;SDS011;60208;48.692;8.948;2023-04-06T03:09:16;12.25;;;9.05;;
72273;SDS011;60208;48.692;8.948;2023-04-06T03:11:41;14.57;;;9.85;;
72273;SDS011;60208;48.692;8.948;2023-04-06T03:14:06;14.38;;;9.73;;
72273;SDS011;60208;48.692;8.948;2023-04-06T03:16:31;16.35;;;9.10;;
72273;SDS011;60208;48.692;8.948;2023-04-06T03:18:57;19.80;;;9.90;;
72273;SDS011;60208;48.692;8.948;2023-04-06T03:21:22;17.85;;;9.77;;
72273;SDS011;60208;48.692;8.948;2023-04-06T03:23:47;14.02;;;9.43;;
72273;SDS011;60208;48.692;8.948;2023-04-06T03:26:15;18.38;;;10.18;;
72273;SDS011;60208;48.692;8.948;2023-04-06T03:28:41;11.57;;;9.32;;
72273;SDS011;60208;48.692;8.948;2023-04-06T03:31:06;13.38;;;9.18;;
72273;SDS011;60208;48.692;8.948;2023-04-06T03:33:31;12.70;;;9.15;;
72273;SDS011;60208;48.692;8.948;2023-04-06T03:35:57;18.58;;;10.05;;
72273;SDS011;60208;48.692;8.948;2023-04-06T03:38:22;14.02;;;9.82;;
72273;SDS011;60208;48.692;8.948;2023-04-06T03:40:47;23.40;;;14.85;;
72273;SDS011;60208;48.692;8.948;2023-04-06T03:43:12;17.25;;;13.27;;
72273;SDS011;60208;48.692;8.948;2023-04-06T03:45:38;18.75;;;11.15;;
72273;SDS011;60208;48.692;8.948;2023-04-06T03:48:03;14.80;;;10.07;;
72273;SDS011;60208;48.692;8.948;2023-04-06T03:50:28;13.07;;;9.10;;
72273;SDS011;60208;48.692;8.948;2023-04-06T03:52:54;11.73;;;8.95;;
72273;SDS011;60208;48.692;8.948;2023-04-06T03:55:19;15.77;;;9.68;;
72273;SDS011;60208;48.692;8.948;2023-04-06T03:57:44;15.57;;;8.80;;
72273;SDS011;60208;48.692;8.948;2023-04-06T04:00:10;15.07;;;8.57;;
72273;SDS011;60208;48.692;8.948;2023-04-06T04:02:35;11.88;;;9.30;;
72273;SDS011;60208;48.692;8.948;2023-04-06T04:05:00;14.85;;;9.35;;
72273;SDS011;60208;48.692;8.948;2023-04-06T04:07:26;14.93;;;9.32;;
72273;SDS011;60208;48.692;8.948;2023-04-06T04:09:51;15.07;;;9.60;;
72273;SDS011;60208;48.692;8.948;2023-04-06T04:12:16;11.52;;;8.68;;
72273;SDS011;60208;48.692;8.948;2023-04-06T04:14:41;13.30;;;9.57;;
72273;SDS011;60208;48.692;8.948;2023-04-06T04:17:07;14.05;;;9.30;;
72273;SDS011;60208;48.692;8.948;2023-04-06T04:19:32;14.20;;;9.00;;
72273;SDS011;60208;48.692;8.948;2023-04-06T04:21:57;15.18;;;8.88;;
72273;SDS011;60208;48.692;8.948;2023-04-06T04:24:22;13.85;;;9.27;;
72273;SDS011;60208;48.692;8.948;2023-04-06T04:26:48;12.48;;;8.63;;
72273;SDS011;60208;48.692;8.948;2023-04-06T04:29:13;13.07;;;9.18;;
72273;SDS011;60208;48.692;8.948;2023-04-06T04:31:38;12.52;;;8.70;;
72273;SDS011;60208;48.692;8.948;2023-04-06T04:34:04;12.30;;;8.95;;
72273;SDS011;60208;48.692;8.948;2023-04-06T04:36:31;11.32;;;8.75;;
72273;SDS011;60208;48.692;8.948;2023-04-06T04:38:56;12.57;;;9.18;;
72273;SDS011;60208;48.692;8.948;2023-04-06T04:41:22;15.55;;;9.70;;
72273;SDS011;60208;48.692;8.948;2023-04-06T04:43:47;14.25;;;9.55;;
72273;SDS011;60208;48.692;8.948;2023-04-06T04:46:12;13.57;;;8.80;;
72273;SDS011;60208;48.692;8.948;2023-04-06T04:48:38;13.35;;;9.02;;
72273;SDS011;60208;48.692;8.948;2023-04-06T04:51:04;14.25;;;8.85;;
72273;SDS011;60208;48.692;8.948;2023-04-06T04:53:29;17.13;;;9.90;;
72273;SDS011;60208;48.692;8.948;2023-04-06T04:55:54;12.85;;;9.70;;
72273;SDS011;60208;48.692;8.948;2023-04-06T04:58:20;15.07;;;10.20;;
72273;SDS011;60208;48.692;8.948;2023-04-06T05:00:45;13.60;;;9.63;;
72273;SDS011;60208;48.692;8.948;2023-04-06T05:03:14;13.32;;;9.05;;
72273;SDS011;60208;48.692;8.948;2023-04-06T05:05:41;13.88;;;10.60;;
72273;SDS011;60208;48.692;8.948;2023-04-06T05:08:06;12.93;;;9.75;;
72273;SDS011;60208;48.692;8.948;2023-04-06T05:10:31;13.93;;;9.75;;
72273;SDS011;60208;48.692;8.948;2023-04-06T05:12:57;13.05;;;9.70;;
72273;SDS011;60208;48.692;8.948;2023-04-06T05:15:22;13.50;;;9.73;;
72273;SDS011;60208;48.692;8.948;2023-04-06T05:17:47;14.43;;;9.55;;
72273;SDS011;60208;48.692;8.948;2023-04-06T05:20:13;14.82;;;9.60;;
72273;SDS011;60208;48.692;8.948;2023-04-06T05:22:38;14.50;;;10.57;;
72273;SDS011;60208;48.692;8.948;2023-04-06T05:25:03;17.13;;;10.38;;
72273;SDS011;60208;48.692;8.948;2023-04-06T05:27:29;26.40;;;14.00;;
72273;SDS011;60208;48.692;8.948;2023-04-06T05:29:54;15.15;;;10.25;;
72273;SDS011;60208;48.692;8.948;2023-04-06T05:32:19;16.58;;;11.10;;
72273;SDS011;60208;48.692;8.948;2023-04-06T05:34:47;30.13;;;17.42;;
72273;SDS011;60208;48.692;8.948;2023-04-06T05:37:12;39.67;;;20.02;;
72273;SDS011;60208;48.692;8.948;2023-04-06T05:39:38;36.17;;;17.80;;
72273;SDS011;60208;48.692;8.948;2023-04-06T05:42:04;23.70;;;12.73;;
72273;SDS011;60208;48.692;8.948;2023-04-06T05:44:30;24.58;;;14.75;;
72273;SDS011;60208;48.692;8.948;2023-04-06T05:46:56;20.25;;;13.38;;
72273;SDS011;60208;48.692;8.948;2023-04-06T05:49:21;21.58;;;13.02;;
72273;SDS011;60208;48.692;8.948;2023-04-06T05:51:46;27.88;;;14.07;;
72273;SDS011;60208;48.692;8.948;2023-04-06T05:54:12;16.67;;;11.38;;
72273;SDS011;60208;48.692;8.948;2023-04-06T05:56:37;23.10;;;12.50;;
72273;SDS011;60208;48.692;8.948;2023-04-06T05:59:02;21.52;;;12.85;;
72273;SDS011;60208;48.692;8.948;2023-04-06T06:01:27;24.77;;;14.00;;
72273;SDS011;60208;48.692;8.948;2023-04-06T06:03:54;16.45;;;11.55;;
72273;SDS011;60208;48.692;8.948;2023-04-06T06:06:19;24.00;;;12.65;;
72273;SDS011;60208;48.692;8.948;2023-04-06T06:08:45;31.95;;;20.63;;
72273;SDS011;60208;48.692;8.948;2023-04-06T06:11:10;16.00;;;10.43;;
72273;SDS011;60208;48.692;8.948;2023-04-06T06:13:36;15.70;;;9.85;;
72273;SDS011;60208;48.692;8.948;2023-04-06T06:16:01;19.33;;;10.25;;
72273;SDS011;60208;48.692;8.948;2023-04-06T06:18:30;17.08;;;10.55;;
72273;SDS011;60208;48.692;8.948;2023-04-06T06:20:55;18.23;;;10.05;;
72273;SDS011;60208;48.692;8.948;2023-04-06T06:23:20;21.30;;;11.32;;
72273;SDS011;60208;48.692;8.948;2023-04-06T06:25:46;27.67;;;15.23;;
72273;SDS011;60208;48.692;8.948;2023-04-06T06:28:11;33.17;;;17.10;;
72273;SDS011;60208;48.692;8.948;2023-04-06T06:30:36;20.90;;;12.00;;
72273;SDS011;60208;48.692;8.948;2023-04-06T06:33:02;29.27;;;13.55;;
72273;SDS011;60208;48.692;8.948;2023-04-06T06:35:28;66.90;;;17.48;;
72273;SDS011;60208;48.692;8.948;2023-04-06T06:37:53;44.10;;;19.00;;
72273;SDS011;60208;48.692;8.948;2023-04-06T06:40:18;31.90;;;14.88;;
72273;SDS011;60208;48.692;8.948;2023-04-06T06:42:45;24.60;;;13.73;;
72273;SDS011;60208;48.692;8.948;2023-04-06T06:45:10;29.92;;;15.25;;
72273;SDS011;60208;48.692;8.948;2023-04-06T06:47:36;32.85;;;16.77;;
72273;SDS011;60208;48.692;8.948;2023-04-06T06:50:01;20.77;;;12.07;;
72273;SDS011;60208;48.692;8.948;2023-04-06T06:52:28;20.85;;;12.80;;
72273;SDS011;60208;48.692;8.948;2023-04-06T06:54:54;19.90;;;13.07;;
72273;SDS011;60208;48.692;8.948;2023-04-06T06:57:19;23.38;;;11.90;;
72273;SDS011;60208;48.692;8.948;2023-04-06T06:59:44;22.27;;;11.35;;
72273;SDS011;60208;48.692;8.948;2023-04-06T07:02:10;17.25;;;11.35;;
72273;SDS011;60208;48.692;8.948;2023-04-06T07:04:35;24.02;;;14.75;;
72273;SDS011;60208;48.692;8.948;2023-04-06T07:07:00;42.25;;;21.05;;
72273;SDS011;60208;48.692;8.948;2023-04-06T07:09:26;16.05;;;11.35;;
72273;SDS011;60208;48.692;8.948;2023-04-06T07:11:51;20.90;;;12.73;;
72273;SDS011;60208;48.692;8.948;2023-04-06T07:14:17;20.52;;;14.07;;
72273;SDS011;60208;48.692;8.948;2023-04-06T07:16:42;17.65;;;11.40;;
72273;SDS011;60208;48.692;8.948;2023-04-06T07:19:10;18.02;;;12.02;;
72273;SDS011;60208;48.692;8.948;2023-04-06T07:21:35;18.05;;;11.57;;
72273;SDS011;60208;48.692;8.948;2023-04-06T07:24:01;20.98;;;10.70;;
72273;SDS011;60208;48.692;8.948;2023-04-06T07:26:26;14.75;;;10.60;;
72273;SDS011;60208;48.692;8.948;2023-04-06T07:28:52;17.90;;;10.63;;
72273;SDS011;60208;48.692;8.948;2023-04-06T07:31:17;14.77;;;10.98;;
72273;SDS011;60208;48.692;8.948;2023-04-06T07:33:42;19.27;;;11.30;;
72273;SDS011;60208;48.692;8.948;2023-04-06T07:36:08;12.32;;;10.15;;
72273;SDS011;60208;48.692;8.948;2023-04-06T07:38:33;15.32;;;10.40;;
72273;SDS011;60208;48.692;8.948;2023-04-06T07:40:58;25.92;;;12.40;;
72273;SDS011;60208;48.692;8.948;2023-04-06T07:43:23;31.15;;;19.15;;
72273;SDS011;60208;48.692;8.948;2023-04-06T07:45:54;21.30;;;12.82;;
72273;SDS011;60208;48.692;8.948;2023-04-06T07:48:19;13.80;;;10.23;;
72273;SDS011;60208;48.692;8.948;2023-04-06T07:50:44;12.23;;;9.45;;
72273;SDS011;60208;48.692;8.948;2023-04-06T07:53:10;15.52;;;10.43;;
72273;SDS011;60208;48.692;8.948;2023-04-06T07:55:35;15.00;;;10.80;;
72273;SDS011;60208;48.692;8.948;2023-04-06T07:58:01;13.98;;;10.50;;
72273;SDS011;60208;48.692;8.948;2023-04-06T08:00:26;13.80;;;9.82;;
72273;SDS011;60208;48.692;8.948;2023-04-06T08:02:51;13.82;;;9.57;;
72273;SDS011;60208;48.692;8.948;2023-04-06T08:05:17;13.93;;;10.50;;
72273;SDS011;60208;48.692;8.948;2023-04-06T08:07:42;19.85;;;13.63;;
72273;SDS011;60208;48.692;8.948;2023-04-06T08:10:08;16.67;;;10.43;;
72273;SDS011;60208;48.692;8.948;2023-04-06T08:12:34;13.05;;;10.25;;
72273;SDS011;60208;48.692;8.948;2023-04-06T08:15:00;14.68;;;10.18;;
72273;SDS011;60208;48.692;8.948;2023-04-06T08:17:25;15.90;;;10.15;;
72273;SDS011;60208;48.692;8.948;2023-04-06T08:19:52;14.60;;;10.13;;
72273;SDS011;60208;48.692;8.948;2023-04-06T08:22:17;16.08;;;11.27;;
72273;SDS011;60208;48.692;8.948;2023-04-06T08:24:42;13.75;;;10.48;;
72273;SDS011;60208;48.692;8.948;2023-04-06T08:27:08;17.75;;;10.27;;
72273;SDS011;60208;48.692;8.948;2023-04-06T08:29:34;14.65;;;9.65;;
72273;SDS011;60208;48.692;8.948;2023-04-06T08:32:00;14.07;;;9.63;;
72273;SDS011;60208;48.692;8.948;2023-04-06T08:34:26;14.27;;;9.30;;
72273;SDS011;60208;48.692;8.948;2023-04-06T08:36:51;15.85;;;9.00;;
72273;SDS011;60208;48.692;8.948;2023-04-06T08:39:17;13.50;;;9.35;;
72273;SDS011;60208;48.692;8.948;2023-04-06T08:41:48;13.82;;;9.50;;
72273;SDS011;60208;48.692;8.948;2023-04-06T08:44:14;16.13;;;8.63;;
72273;SDS011;60208;48.692;8.948;2023-04-06T08:46:40;11.32;;;8.50;;
72273;SDS011;60208;48.692;8.948;2023-04-06T08:49:05;10.90;;;7.78;;
72273;SDS011;60208;48.692;8.948;2023-04-06T08:51:34;12.93;;;7.35;;
72273;SDS011;60208;48.692;8.948;2023-04-06T08:54:00;10.63;;;8.10;;
72273;SDS011;60208;48.692;8.948;2023-04-06T08:56:26;15.23;;;9.55;;
72273;SDS011;60208;48.692;8.948;2023-04-06T08:58:52;17.30;;;9.93;;
72273;SDS011;60208;48.692;8.948;2023-04-06T09:01:17;12.05;;;9.13;;
72273;SDS011;60208;48.692;8.948;2023-04-06T09:03:45;13.73;;;9.18;;
72273;SDS011;60208;48.692;8.948;2023-04-06T09:06:11;12.82;;;9.10;;
72273;SDS011;60208;48.692;8.948;2023-04-06T09:08:38;10.57;;;8.63;;
72273;SDS011;60208;48.692;8.948;2023-04-06T09:11:07;12.85;;;9.30;;
72273;SDS011;60208;48.692;8.948;2023-04-06T09:13:54;12.32;;;9.48;;
72273;SDS011;60208;48.692;8.948;2023-04-06T09:16:19;14.27;;;9.57;;
72273;SDS011;60208;48.692;8.948;2023-04-06T09:18:45;10.50;;;8.85;;
72273;SDS011;60208;48.692;8.948;2023-04-06T09:21:10;14.23;;;9.45;;
72273;SDS011;60208;48.692;8.948;2023-04-06T09:23:36;16.40;;;10.00;;
72273;SDS011;60208;48.692;8.948;2023-04-06T09:28:40;14.52;;;9.15;;
72273;SDS011;60208;48.692;8.948;2023-04-06T09:31:05;10.95;;;8.52;;
72273;SDS011;60208;48.692;8.948;2023-04-06T09:33:30;10.13;;;9.00;;
72273;SDS011;60208;48.692;8.948;2023-04-06T09:35:56;10.75;;;8.95;;
72273;SDS011;60208;48.692;8.948;2023-04-06T09:38:21;12.55;;;8.90;;
72273;SDS011;60208;48.692;8.948;2023-04-06T09:40:47;13.20;;;9.13;;
72273;SDS011;60208;48.692;8.948;2023-04-06T09:43:12;11.13;;;8.18;;
72273;SDS011;60208;48.692;8.948;2023-04-06T09:45:47;11.38;;;9.52;;
72273;SDS011;60208;48.692;8.948;2023-04-06T09:48:13;10.70;;;8.68;;
72273;SDS011;60208;48.692;8.948;2023-04-06T09:50:38;14.20;;;8.48;;
72273;SDS011;60208;48.692;8.948;2023-04-06T09:53:05;10.43;;;8.68;;
72273;SDS011;60208;48.692;8.948;2023-04-06T09:55:33;9.88;;;7.63;;
72273;SDS011;60208;48.692;8.948;2023-04-06T09:58:05;10.48;;;8.27;;
72273;SDS011;60208;48.692;8.948;2023-04-06T10:00:32;8.93;;;7.57;;
72273;SDS011;60208;48.692;8.948;2023-04-06T10:03:06;12.10;;;7.88;;
72273;SDS011;60208;48.692;8.948;2023-04-06T10:05:36;7.75;;;6.93;;
72273;SDS011;60208;48.692;8.948;2023-04-06T10:08:05;10.40;;;7.60;;
72273;SDS011;60208;48.692;8.948;2023-04-06T10:10:31;8.35;;;7.15;;
72273;SDS011;60208;48.692;8.948;2023-04-06T10:12:57;8.25;;;7.20;;
72273;SDS011;60208;48.692;8.948;2023-04-06T10:15:24;7.57;;;6.75;;
72273;SDS011;60208;48.692;8.948;2023-04-06T10:17:50;7.65;;;6.80;;
72273;SDS011;60208;48.692;8.948;2023-04-06T10:23:15;8.45;;;7.55;;
72273;SDS011;60208;48.692;8.948;2023-04-06T10:25:56;9.48;;;7.25;;
72273;SDS011;60208;48.692;8.948;2023-04-06T10:28:22;7.93;;;6.18;;
72273;SDS011;60208;48.692;8.948;2023-04-06T10:30:47;8.30;;;6.30;;
72273;SDS011;60208;48.692;8.948;2023-04-06T10:33:17;7.70;;;5.90;;
72273;SDS011;60208;48.692;8.948;2023-04-06T10:35:42;7.13;;;6.28;;
72273;SDS011;60208;48.692;8.948;2023-04-06T10:38:07;7.32;;;5.78;;
72273;SDS011;60208;48.692;8.948;2023-04-06T10:40:36;6.63;;;5.93;;
72273;SDS011;60208;48.692;8.948;2023-04-06T10:43:12;6.88;;;6.13;;
72273;SDS011;60208;48.692;8.948;2023-04-06T10:45:37;9.52;;;6.70;;
72273;SDS011;60208;48.692;8.948;2023-04-06T10:48:18;8.70;;;6.38;;
72273;SDS011;60208;48.692;8.948;2023-04-06T10:50:44;6.20;;;5.60;;
72273;SDS011;60208;48.692;8.948;2023-04-06T10:53:10;6.45;;;5.78;;
72273;SDS011;60208;48.692;8.948;2023-04-06T10:55:35;7.22;;;5.80;;
72273;SDS011;60208;48.692;8.948;2023-04-06T10:58:05;8.40;;;5.72;;
72273;SDS011;60208;48.692;8.948;2023-04-06T11:00:31;8.80;;;7.07;;
72273;SDS011;60208;48.692;8.948;2023-04-06T11:02:59;7.87;;;5.23;;
72273;SDS011;60208;48.692;8.948;2023-04-06T11:05:26;6.07;;;5.47;;
72273;SDS011;60208;48.692;8.948;2023-04-06T11:07:51;5.32;;;4.80;;
72273;SDS011;60208;48.692;8.948;2023-04-06T11:10:20;7.47;;;5.50;;
72273;SDS011;60208;48.692;8.948;2023-04-06T11:12:51;7.15;;;5.38;;
72273;SDS011;60208;48.692;8.948;2023-04-06T11:15:17;6.35;;;5.38;;
72273;SDS011;60208;48.692;8.948;2023-04-06T11:17:42;6.40;;;5.73;;
72273;SDS011;60208;48.692;8.948;2023-04-06T11:20:09;8.20;;;5.90;;
72273;SDS011;60208;48.692;8.948;2023-04-06T11:22:35;5.38;;;4.80;;
72273;SDS011;60208;48.692;8.948;2023-04-06T11:25:04;6.32;;;5.10;;
72273;SDS011;60208;48.692;8.948;2023-04-06T11:27:33;5.80;;;5.03;;
72273;SDS011;60208;48.692;8.948;2023-04-06T11:30:02;5.05;;;4.55;;
72273;SDS011;60208;48.692;8.948;2023-04-06T11:32:38;5.07;;;4.55;;
72273;SDS011;60208;48.692;8.948;2023-04-06T11:35:05;5.72;;;4.63;;
72273;SDS011;60208;48.692;8.948;2023-04-06T11:37:31;5.38;;;4.88;;
72273;SDS011;60208;48.692;8.948;2023-04-06T11:40:08;5.78;;;5.28;;
72273;SDS011;60208;48.692;8.948;2023-04-06T11:42:34;5.50;;;5.00;;
72273;SDS011;60208;48.692;8.948;2023-04-06T11:44:59;5.60;;;5.10;;
72273;SDS011;60208;48.692;8.948;2023-04-06T11:47:35;6.07;;;5.43;;
72273;SDS011;60208;48.692;8.948;2023-04-06T11:50:10;5.85;;;5.35;;
72273;SDS011;60208;48.692;8.948;2023-04-06T11:52:36;5.88;;;5.38;;
72273;SDS011;60208;48.692;8.948;2023-04-06T11:55:16;6.20;;;5.60;;
72273;SDS011;60208;48.692;8.948;2023-04-06T11:57:41;6.55;;;5.53;;
72273;SDS011;60208;48.692;8.948;2023-04-06T12:00:07;5.97;;;5.38;;
72273;SDS011;60208;48.692;8.948;2023-04-06T12:02:34;6.50;;;5.90;;
72273;SDS011;60208;48.692;8.948;2023-04-06T12:04:59;6.70;;;6.00;;
72273;SDS011;60208;48.692;8.948;2023-04-06T12:07:25;6.40;;;5.20;;
72273;SDS011;60208;48.692;8.948;2023-04-06T12:09:50;5.37;;;4.87;;
72273;SDS011;60208;48.692;8.948;2023-04-06T12:12:15;5.63;;;4.57;;
72273;SDS011;60208;48.692;8.948;2023-04-06T12:14:41;7.75;;;5.72;;
72273;SDS011;60208;48.692;8.948;2023-04-06T12:17:06;5.77;;;5.13;;
72273;SDS011;60208;48.692;8.948;2023-04-06T12:19:31;5.80;;;4.93;;
72273;SDS011;60208;48.692;8.948;2023-04-06T12:21:57;5.63;;;5.03;;
72273;SDS011;60208;48.692;8.948;2023-04-06T12:24:22;6.13;;;4.82;;
72273;SDS011;60208;48.692;8.948;2023-04-06T12:26:48;6.55;;;4.75;;
72273;SDS011;60208;48.692;8.948;2023-04-06T12:29:13;6.03;;;4.87;;
72273;SDS011;60208;48.692;8.948;2023-04-06T12:31:38;5.67;;;5.00;;
72273;SDS011;60208;48.692;8.948;2023-04-06T12:34:05;5.68;;;5.18;;
72273;SDS011;60208;48.692;8.948;2023-04-06T12:36:31;6.75;;;4.60;;
72273;SDS011;60208;48.692;8.948;2023-04-06T12:38:57;7.00;;;5.22;;
72273;SDS011;60208;48.692;8.948;2023-04-06T12:41:27;5.78;;;4.75;;
72273;SDS011;60208;48.692;8.948;2023-04-06T12:43:53;5.28;;;4.43;;
72273;SDS011;60208;48.692;8.948;2023-04-06T12:46:18;5.20;;;4.70;;
72273;SDS011;60208;48.692;8.948;2023-04-06T12:48:44;8.43;;;7.32;;
72273;SDS011;60208;48.692;8.948;2023-04-06T12:51:09;7.95;;;5.18;;
72273;SDS011;60208;48.692;8.948;2023-04-06T12:53:35;6.28;;;4.65;;
72273;SDS011;60208;48.692;8.948;2023-04-06T12:56:01;5.55;;;5.00;;
72273;SDS011;60208;48.692;8.948;2023-04-06T12:58:26;5.53;;;4.93;;
72273;SDS011;60208;48.692;8.948;2023-04-06T13:00:52;5.70;;;5.05;;
72273;SDS011;60208;48.692;8.948;2023-04-06T13:03:18;5.77;;;4.50;;
72273;SDS011;60208;48.692;8.948;2023-04-06T13:05:44;4.70;;;4.20;;
72273;SDS011;60208;48.692;8.948;2023-04-06T13:08:10;4.88;;;4.38;;
72273;SDS011;60208;48.692;8.948;2023-04-06T13:10:35;4.32;;;3.92;;
72273;SDS011;60208;48.692;8.948;2023-04-06T13:13:01;5.00;;;4.37;;
72273;SDS011;60208;48.692;8.948;2023-04-06T13:15:26;5.37;;;4.87;;
72273;SDS011;60208;48.692;8.948;2023-04-06T13:17:51;5.33;;;4.83;;
72273;SDS011;60208;48.692;8.948;2023-04-06T13:20:16;7.00;;;4.60;;
72273;SDS011;60208;48.692;8.948;2023-04-06T13:22:42;6.25;;;5.20;;
72273;SDS011;60208;48.692;8.948;2023-04-06T13:25:07;7.23;;;4.83;;
72273;SDS011;60208;48.692;8.948;2023-04-06T13:27:32;5.43;;;4.72;;
72273;SDS011;60208;48.692;8.948;2023-04-06T13:30:00;6.78;;;4.50;;
72273;SDS011;60208;48.692;8.948;2023-04-06T13:32:26;5.25;;;4.50;;
72273;SDS011;60208;48.692;8.948;2023-04-06T13:34:54;5.28;;;4.32;;
72273;SDS011;60208;48.692;8.948;2023-04-06T13:37:19;5.05;;;4.57;;
72273;SDS011;60208;48.692;8.948;2023-04-06T13:39:44;7.20;;;4.95;;
72273;SDS011;60208;48.692;8.948;2023-04-06T13:42:10;5.37;;;4.80;;
72273;SDS011;60208;48.692;8.948;2023-04-06T13:44:35;6.95;;;5.38;;
72273;SDS011;60208;48.692;8.948;2023-04-06T13:47:00;5.00;;;4.30;;
72273;SDS011;60208;48.692;8.948;2023-04-06T13:49:26;6.53;;;5.10;;
72273;SDS011;60208;48.692;8.948;2023-04-06T13:51:51;8.75;;;5.00;;
72273;SDS011;60208;48.692;8.948;2023-04-06T13:54:17;6.67;;;5.37;;
72273;SDS011;60208;48.692;8.948;2023-04-06T13:56:42;6.93;;;5.23;;
72273;SDS011;60208;48.692;8.948;2023-04-06T13:59:07;6.27;;;4.73;;
72273;SDS011;60208;48.692;8.948;2023-04-06T14:01:32;6.93;;;5.17;;
72273;SDS011;60208;48.692;8.948;2023-04-06T14:03:58;6.97;;;4.23;;
72273;SDS011;60208;48.692;8.948;2023-04-06T14:06:23;6.37;;;4.73;;
72273;SDS011;60208;48.692;8.948;2023-04-06T14:08:48;6.37;;;4.90;;
72273;SDS011;60208;48.692;8.948;2023-04-06T14:11:13;6.27;;;4.50;;
72273;SDS011;60208;48.692;8.948;2023-04-06T14:13:39;5.28;;;4.75;;
72273;SDS011;60208;48.692;8.948;2023-04-06T14:16:05;5.85;;;4.47;;
72273;SDS011;60208;48.692;8.948;2023-04-06T14:18:31;8.18;;;5.55;;
72273;SDS011;60208;48.692;8.948;2023-04-06T14:20:56;6.82;;;4.50;;
72273;SDS011;60208;48.692;8.948;2023-04-06T14:23:22;5.28;;;4.70;;
72273;SDS011;60208;48.692;8.948;2023-04-06T14:25:47;7.35;;;4.78;;
72273;SDS011;60208;48.692;8.948;2023-04-06T14:28:12;5.33;;;4.63;;
72273;SDS011;60208;48.692;8.948;2023-04-06T14:30:38;7.40;;;5.40;;
72273;SDS011;60208;48.692;8.948;2023-04-06T14:33:03;6.87;;;5.20;;